Terminal Aerodrome Forecast
Issued by NWS

Home | Current Version | Previous Version | Text Only | Print | Product List | Glossary On
Versions: 1 2 3 4 5 6 7 8 9 10 11 12 13 14 15 16 17 18 19 20
668
FTUS46 KLOX 222340
TAFSBP
TAF
KSBP 222340Z 2300/2324 31007KT P6SM SKC
     FM230300 32008KT 5SM BR SKC
     FM230500 31006KT 4SM BR OVC005
     FM230900 31005KT 2SM BR OVC002
     FM231500 VRB03KT 4SM BR OVC006
     FM231700 VRB03KT P6SM SKC
     FM232000 31010KT P6SM SKC=

USA.gov is the U.S. government's official web portal to all federal, state and local government web resources and services.